Time;durP1;ratioP1;P1;durP2;ratioP2;P2;SDS_P1;SDS_P2;PMS_P1;PMS_P2;Temp;Humidity;BMP_temperature;BMP_pressure;BME280_temperature;BME280_humidity;BME280_pressure;Samples;Min_cycle;Max_cycle;Signal;HPM_P1;HPM_P2
2023/01/09 00:00:21;;;;;;;8.20;4.80;;;;;;;1.57;100.00;101511.84;107251;1257;59063;-68
2023/01/09 00:03:10;;;;;;;7.60;5.10;;;;;;;1.56;100.00;101508.27;107180;1247;64779;-68
2023/01/09 00:05:39;;;;;;;6.90;4.80;;;;;;;1.59;100.00;101504.25;107178;1247;62806;-71
2023/01/09 00:08:08;;;;;;;7.60;4.80;;;;;;;1.60;100.00;101508.86;107200;1249;68365;-68
2023/01/09 00:10:37;;;;;;;7.60;5.00;;;;;;;1.70;100.00;101508.48;107184;1256;71300;-69
2023/01/09 00:13:08;;;;;;;6.50;4.50;;;;;;;1.72;100.00;101501.39;107303;1247;58956;-69
2023/01/09 00:15:39;;;;;;;7.40;4.90;;;;;;;1.76;100.00;101499.77;107119;1245;59104;-68
2023/01/09 00:18:10;;;;;;;7.40;4.60;;;;;;;1.77;100.00;101499.73;107375;1245;72822;-69
2023/01/09 00:20:39;;;;;;;5.70;4.20;;;;;;;1.79;100.00;101491.44;107210;1246;71366;-70
2023/01/09 00:23:08;;;;;;;7.50;4.70;;;;;;;1.83;100.00;101490.64;107139;1256;59988;-67
2023/01/09 00:25:37;;;;;;;5.10;4.30;;;;;;;1.81;100.00;101491.36;107192;1257;63552;-67
2023/01/09 00:28:08;;;;;;;6.40;4.40;;;;;;;1.83;100.00;101489.44;107140;1254;58986;-68
2023/01/09 00:30:37;;;;;;;6.40;4.20;;;;;;;1.84;100.00;101487.88;107124;1249;61571;-69
2023/01/09 00:33:06;;;;;;;6.50;4.50;;;;;;;1.85;100.00;101488.02;107127;1245;73840;-70
2023/01/09 00:35:35;;;;;;;5.70;4.50;;;;;;;1.88;100.00;101483.16;107130;1248;72281;-69
2023/01/09 00:38:05;;;;;;;7.70;4.20;;;;;;;1.90;100.00;101484.48;107079;1257;70547;-71
2023/01/09 00:40:34;;;;;;;8.90;4.40;;;;;;;1.90;100.00;101476.56;107134;1247;73345;-70
2023/01/09 00:43:03;;;;;;;6.10;4.20;;;;;;;1.82;100.00;101466.44;107128;1245;61896;-70
2023/01/09 00:45:32;;;;;;;6.60;4.50;;;;;;;1.83;100.00;101463.32;107077;1245;60198;-70
2023/01/09 00:48:08;;;;;;;6.70;4.20;;;;;;;1.89;100.00;101461.31;107042;1246;73748;-69
2023/01/09 00:50:37;;;;;;;4.80;4.00;;;;;;;1.92;100.00;101458.33;107095;1257;72551;-68
2023/01/09 00:53:16;;;;;;;5.40;4.30;;;;;;;1.91;100.00;101448.90;106953;1248;70799;-68
2023/01/09 00:55:45;;;;;;;5.70;4.60;;;;;;;1.92;100.00;101444.25;106990;1253;73803;-68
2023/01/09 00:58:14;;;;;;;6.30;4.30;;;;;;;1.96;100.00;101445.68;107052;1248;62069;-69
2023/01/09 01:00:43;;;;;;;6.00;3.90;;;;;;;1.96;100.00;101438.45;107041;1246;60385;-70
2023/01/09 01:03:12;;;;;;;7.50;4.40;;;;;;;1.97;100.00;101434.67;107119;1246;73823;-66
2023/01/09 01:08:28;;;;;;;5.50;4.20;;;;;;;1.99;100.00;101429.42;107022;1254;59575;-66
2023/01/09 01:10:57;;;;;;;6.90;4.30;;;;;;;1.93;100.00;101425.30;107024;1246;74139;-66
2023/01/09 01:13:27;;;;;;;9.00;4.50;;;;;;;1.97;100.00;101419.87;107071;1246;61998;-67
2023/01/09 01:15:56;;;;;;;7.20;3.90;;;;;;;2.05;100.00;101418.30;107119;1257;62113;-68
2023/01/09 01:18:25;;;;;;;6.30;4.00;;;;;;;2.02;100.00;101413.38;107119;1247;63486;-68
2023/01/09 01:20:54;;;;;;;6.90;4.90;;;;;;;2.05;100.00;101402.33;107100;1247;61225;-66
2023/01/09 01:23:23;;;;;;;9.10;4.70;;;;;;;2.10;100.00;101402.55;107055;1247;59608;-66
2023/01/09 01:25:52;;;;;;;6.40;4.60;;;;;;;2.10;100.00;101404.60;107113;1247;62798;-66
2023/01/09 01:28:22;;;;;;;6.20;4.30;;;;;;;2.15;100.00;101397.26;107098;1249;61520;-67
2023/01/09 01:30:52;;;;;;;7.60;4.10;;;;;;;2.22;100.00;101392.95;107091;1247;60941;-66
2023/01/09 01:33:21;;;;;;;9.20;5.50;;;;;;;2.24;100.00;101389.63;107108;1257;73351;-64
2023/01/09 01:35:50;;;;;;;7.40;5.40;;;;;;;2.29;100.00;101389.48;107040;1246;73000;-66
2023/01/09 01:38:19;;;;;;;8.10;5.10;;;;;;;2.23;100.00;101386.53;107095;1247;70383;-69
2023/01/09 01:40:54;;;;;;;8.70;5.40;;;;;;;2.30;100.00;101383.96;107077;1248;73837;-67
2023/01/09 01:43:22;;;;;;;9.10;4.80;;;;;;;2.34;100.00;101379.38;107025;1247;61731;-67
2023/01/09 01:45:51;;;;;;;8.40;5.70;;;;;;;2.33;100.00;101376.33;107133;1254;60905;-68
2023/01/09 01:48:27;;;;;;;9.30;5.60;;;;;;;2.39;100.00;101373.04;107209;1244;75124;-67
2023/01/09 01:51:05;;;;;;;8.80;5.40;;;;;;;2.47;100.00;101372.83;107311;1257;72621;-66
2023/01/09 01:53:50;;;;;;;10.10;5.80;;;;;;;2.50;100.00;101367.58;107313;1247;59530;-67
2023/01/09 01:56:34;;;;;;;9.60;6.60;;;;;;;2.54;100.00;101362.65;107265;1245;73858;-69
2023/01/09 01:59:28;;;;;;;11.50;6.90;;;;;;;2.60;100.00;101357.84;107137;1244;59357;-68
2023/01/09 02:02:00;;;;;;;10.50;6.30;;;;;;;2.68;100.00;101352.80;107313;1248;59051;-67
2023/01/09 02:04:32;;;;;;;;;;;;;;;2.72;100.00;101352.83;107344;1247;74439;-67
2023/01/09 02:07:06;;;;;;;9.90;6.40;;;;;;;2.84;100.00;101352.65;107129;1246;72458;-69
2023/01/09 02:09:38;;;;;;;8.80;5.70;;;;;;;2.86;100.00;101349.30;107176;1247;69282;-70
2023/01/09 02:12:27;;;;;;;10.60;6.80;;;;;;;2.88;100.00;101348.72;107183;1247;63327;-70
2023/01/09 02:15:08;;;;;;;11.70;6.50;;;;;;;2.93;100.00;101341.37;107393;1246;62073;-70
2023/01/09 02:18:12;;;;;;;9.50;6.80;;;;;;;2.96;100.00;101334.57;107367;1247;60877;-74
2023/01/09 02:21:13;;;;;;;13.60;7.20;;;;;;;3.03;100.00;101326.26;107164;1257;63019;-69
2023/01/09 02:24:00;;;;;;;13.20;6.70;;;;;;;3.09;100.00;101325.37;107204;1246;61344;-68
2023/01/09 02:27:14;;;;;;;14.00;7.50;;;;;;;3.17;100.00;101322.20;107115;1247;70129;-69
2023/01/09 02:30:19;;;;;;;13.90;6.90;;;;;;;3.26;100.00;101315.55;107055;1257;63303;-69
2023/01/09 02:33:47;;;;;;;12.70;7.30;;;;;;;3.30;100.00;101309.40;107125;1247;60330;-69
2023/01/09 02:36:59;;;;;;;12.30;7.70;;;;;;;3.33;100.00;101299.50;106773;1255;58504;-70
2023/01/09 02:39:41;;;;;;;15.20;7.90;;;;;;;3.34;100.00;101296.70;107374;1248;62367;-69
2023/01/09 02:42:22;;;;;;;13.60;8.00;;;;;;;3.35;100.00;101296.31;107303;1257;72620;-73
2023/01/09 02:44:52;;;;;;;13.40;7.30;;;;;;;3.36;100.00;101295.25;107123;1247;60413;-70
2023/01/09 02:55:02;;;;;;;11.80;7.30;;;;;;;3.58;100.00;101280.75;104521;1280;602281;-68
2023/01/09 02:57:54;;;;;;;12.80;7.30;;;;;;;3.58;100.00;101278.51;106143;1257;61522;-68
2023/01/09 03:00:40;;;;;;;13.80;8.80;;;;;;;3.57;100.00;101273.35;106179;1258;61148;-70
2023/01/09 03:03:26;;;;;;;14.50;8.70;;;;;;;3.59;100.00;101271.93;106931;1260;61218;-69
2023/01/09 03:06:29;;;;;;;13.60;8.70;;;;;;;3.66;100.00;101269.42;106997;1247;71115;-69
2023/01/09 03:09:10;;;;;;;15.90;9.00;;;;;;;3.73;100.00;101263.33;107101;1255;327693;-69
2023/01/09 03:11:47;;;;;;;14.20;7.50;;;;;;;3.77;100.00;101261.29;107483;1248;62776;-67
2023/01/09 03:14:20;;;;;;;13.50;9.10;;;;;;;3.77;100.00;101256.48;107159;1248;59073;-68
2023/01/09 03:16:57;;;;;;;15.50;8.70;;;;;;;3.81;100.00;101253.58;107066;1244;59032;-71
2023/01/09 03:19:30;;;;;;;14.60;8.70;;;;;;;3.87;100.00;101251.64;107157;1258;71902;-66
2023/01/09 03:22:00;;;;;;;14.00;9.30;;;;;;;3.93;100.00;101249.89;107071;1248;72498;-66
2023/01/09 03:24:29;;;;;;;14.50;9.10;;;;;;;3.98;100.00;101248.15;107054;1248;68783;-68
2023/01/09 03:26:59;;;;;;;15.20;9.50;;;;;;;4.03;100.00;101248.13;107093;1248;63275;-68
2023/01/09 03:29:27;;;;;;;14.00;9.80;;;;;;;4.11;100.00;101249.58;106973;1251;62450;-68
2023/01/09 03:31:57;;;;;;;13.90;9.50;;;;;;;4.14;100.00;101245.83;107102;1258;59136;-68
2023/01/09 03:34:26;;;;;;;16.30;10.60;;;;;;;4.18;100.00;101246.70;107126;1249;61460;-67
2023/01/09 03:36:55;;;;;;;15.60;10.80;;;;;;;4.26;100.00;101245.91;107044;1248;61172;-68
2023/01/09 03:39:24;;;;;;;17.40;11.60;;;;;;;4.32;100.00;101243.45;107191;1248;59467;-68
2023/01/09 03:41:53;;;;;;;14.40;10.30;;;;;;;4.38;100.00;101244.23;107027;1258;62786;-68
2023/01/09 03:44:22;;;;;;;17.30;12.10;;;;;;;4.42;100.00;101244.06;107104;1244;58385;-68
2023/01/09 03:46:51;;;;;;;16.40;11.30;;;;;;;4.41;100.00;101245.66;107108;1244;61242;-68
2023/01/09 03:49:20;;;;;;;17.20;11.20;;;;;;;4.45;100.00;101243.95;106954;1249;61858;-68
2023/01/09 03:51:49;;;;;;;15.40;10.50;;;;;;;4.52;100.00;101243.00;107133;1258;61634;-67
2023/01/09 03:54:18;;;;;;;15.80;10.70;;;;;;;4.64;100.00;101244.61;107101;1245;60498;-71
2023/01/09 03:56:47;;;;;;;17.40;10.60;;;;;;;4.77;100.00;101243.55;107029;1258;63279;-68
2023/01/09 03:59:16;;;;;;;16.60;10.90;;;;;;;5.01;100.00;101235.02;107062;1247;59035;-69
2023/01/09 04:01:45;;;;;;;14.90;10.50;;;;;;;5.14;100.00;101233.82;106998;1251;58338;-68
2023/01/09 04:04:14;;;;;;;14.30;10.10;;;;;;;5.22;100.00;101235.70;107128;1248;72604;-69
2023/01/09 04:06:43;;;;;;;15.20;9.80;;;;;;;5.35;100.00;101237.58;107054;1248;72844;-73
2023/01/09 04:09:12;;;;;;;14.10;9.70;;;;;;;5.40;100.00;101241.32;106939;1254;70438;-68
2023/01/09 04:11:41;;;;;;;15.00;9.60;;;;;;;5.42;100.00;101238.13;106834;1248;73861;-69
2023/01/09 04:14:10;;;;;;;14.40;9.90;;;;;;;5.46;100.00;101236.25;106812;1251;62947;-70
2023/01/09 04:16:39;;;;;;;12.40;9.40;;;;;;;5.49;100.00;101237.48;107052;1248;59392;-69
2023/01/09 04:19:09;;;;;;;11.80;9.00;;;;;;;5.59;99.78;101228.08;107013;1253;73553;-70
2023/01/09 04:21:37;;;;;;;13.70;9.30;;;;;;;5.57;99.50;101222.98;107081;1248;71720;-72
2023/01/09 04:24:07;;;;;;;10.50;7.70;;;;;;;5.63;99.45;101218.23;106926;1248;71593;-69
2023/01/09 04:26:36;;;;;;;11.20;7.30;;;;;;;5.63;98.98;101220.14;106955;1249;63289;-70
2023/01/09 04:29:05;;;;;;;14.70;9.60;;;;;;;5.66;98.76;101219.66;106971;1248;57546;-70
2023/01/09 04:31:34;;;;;;;11.40;7.70;;;;;;;5.64;98.89;101218.86;106861;1250;59039;-68
2023/01/09 04:34:03;;;;;;;13.30;9.10;;;;;;;5.59;98.98;101211.49;107080;1258;61485;-68
2023/01/09 04:36:34;;;;;;;12.30;8.10;;;;;;;5.58;99.17;101212.58;107093;1248;61238;-68
2023/01/09 04:39:04;;;;;;;11.80;7.00;;;;;;;5.55;98.80;101204.91;107058;1257;70701;-70
2023/01/09 04:41:48;;;;;;;10.70;7.10;;;;;;;5.54;98.29;101210.99;107150;1248;73653;-72
2023/01/09 04:44:21;;;;;;;13.10;8.00;;;;;;;5.54;98.17;101204.63;107343;1244;63258;-72
2023/01/09 04:46:50;;;;;;;10.10;7.30;;;;;;;5.51;97.82;101210.29;107378;1253;62313;-71
2023/01/09 04:49:20;;;;;;;9.90;7.30;;;;;;;5.45;97.49;101210.20;107387;1244;72772;-70
2023/01/09 04:51:48;;;;;;;12.10;7.30;;;;;;;5.41;97.47;101207.42;107431;1245;71902;-70
2023/01/09 04:54:18;;;;;;;11.80;8.20;;;;;;;5.37;97.24;101208.46;107469;1255;70984;-71
2023/01/09 04:56:48;;;;;;;11.10;6.90;;;;;;;5.40;97.54;101202.97;107546;1244;63485;-72
2023/01/09 04:59:17;;;;;;;11.30;7.50;;;;;;;5.35;97.51;101205.59;107331;1245;61882;-71
2023/01/09 05:01:46;;;;;;;13.30;6.80;;;;;;;5.26;97.80;101204.80;107114;1247;59038;-71
2023/01/09 05:04:15;;;;;;;10.10;6.90;;;;;;;5.23;97.89;101206.30;107205;1244;62987;-70
2023/01/09 05:06:44;;;;;;;14.80;9.70;;;;;;;5.25;97.60;101208.64;107251;1245;61173;-70
2023/01/09 05:09:13;;;;;;;12.50;7.40;;;;;;;5.24;97.64;101202.45;107450;1254;59463;-71
2023/01/09 05:11:42;;;;;;;10.50;6.40;;;;;;;5.20;97.79;101199.67;107374;1245;62758;-70
2023/01/09 05:14:11;;;;;;;10.60;6.80;;;;;;;5.24;97.56;101194.53;107320;1247;58936;-70
2023/01/09 05:16:40;;;;;;;11.10;8.20;;;;;;;5.28;97.54;101192.81;107466;1244;59316;-71
2023/01/09 05:19:10;;;;;;;7.10;5.60;;;;;;;5.29;97.10;101190.48;107431;1245;62950;-70
2023/01/09 05:21:39;;;;;;;7.60;5.90;;;;;;;5.30;96.80;101182.32;107332;1255;61674;-70
2023/01/09 05:24:08;;;;;;;9.40;7.20;;;;;;;5.31;96.83;101173.81;107441;1245;59382;-70
2023/01/09 05:26:37;;;;;;;12.20;6.90;;;;;;;5.31;96.40;101172.10;107348;1248;62758;-69
2023/01/09 05:29:06;;;;;;;8.40;6.30;;;;;;;5.35;96.05;101177.48;107654;1244;58882;-71
2023/01/09 05:31:35;;;;;;;10.10;6.80;;;;;;;5.34;96.03;101181.50;107650;1245;58901;-72
2023/01/09 05:34:04;;;;;;;8.90;6.30;;;;;;;5.33;96.04;101177.54;107603;1245;62194;-71
2023/01/09 05:36:33;;;;;;;7.50;5.60;;;;;;;5.34;95.75;101169.93;107219;1249;61688;-72
2023/01/09 05:39:02;;;;;;;8.70;6.40;;;;;;;5.38;95.24;101166.95;107426;1245;60584;-72
2023/01/09 05:41:31;;;;;;;7.40;4.60;;;;;;;5.37;95.07;101173.73;107385;1248;62364;-73
2023/01/09 05:44:00;;;;;;;10.60;6.50;;;;;;;5.39;95.07;101172.29;107375;1248;58338;-74
2023/01/09 05:46:29;;;;;;;7.00;5.80;;;;;;;5.39;95.34;101174.86;107307;1248;60297;-71
2023/01/09 05:48:58;;;;;;;8.50;5.20;;;;;;;5.33;95.46;101175.61;107275;1246;72532;-73
2023/01/09 05:51:27;;;;;;;8.80;6.20;;;;;;;5.37;95.10;101178.09;107283;1245;61240;-71
2023/01/09 05:53:56;;;;;;;9.40;6.20;;;;;;;5.38;94.83;101174.07;107114;1245;70477;-70
2023/01/09 05:56:25;;;;;;;9.00;6.40;;;;;;;5.39;95.01;101176.63;107433;1256;62835;-73
2023/01/09 05:58:54;;;;;;;10.30;6.10;;;;;;;5.41;94.80;101174.81;107390;1244;57361;-73
2023/01/09 06:01:23;;;;;;;10.00;7.00;;;;;;;5.40;95.01;101170.70;107251;1248;59124;-72
2023/01/09 06:03:52;;;;;;;10.60;6.80;;;;;;;5.44;94.68;101173.27;107494;1245;61151;-73
2023/01/09 06:06:23;;;;;;;7.90;5.50;;;;;;;5.44;94.32;101171.89;107460;1245;71810;-71
2023/01/09 06:08:51;;;;;;;11.10;6.90;;;;;;;5.52;94.09;101166.88;107400;1257;71643;-73
2023/01/09 06:11:20;;;;;;;10.50;6.40;;;;;;;5.52;94.12;101173.77;107299;1257;65742;-72
2023/01/09 06:13:49;;;;;;;9.00;6.80;;;;;;;5.54;94.37;101178.18;107216;1254;58682;-72
2023/01/09 06:16:18;;;;;;;9.70;6.10;;;;;;;5.60;94.23;101175.33;107239;1245;58966;-73
2023/01/09 06:18:47;;;;;;;10.20;6.60;;;;;;;5.64;93.60;101184.18;107289;1244;73664;-71
2023/01/09 06:21:16;;;;;;;9.30;6.80;;;;;;;5.74;93.23;101186.80;107133;1248;72123;-71
2023/01/09 06:23:45;;;;;;;8.70;5.60;;;;;;;5.79;92.91;101185.03;107448;1256;60245;-73
2023/01/09 06:26:14;;;;;;;8.00;5.60;;;;;;;5.81;93.00;101188.38;107430;1245;62509;-72
2023/01/09 06:28:43;;;;;;;9.60;6.40;;;;;;;5.84;92.59;101185.70;107376;1244;62180;-72
2023/01/09 06:31:12;;;;;;;10.90;7.00;;;;;;;5.81;93.19;101185.79;107318;1256;57473;-71
2023/01/09 06:33:41;;;;;;;9.20;5.70;;;;;;;5.90;93.28;101194.93;107375;1256;61416;-72
2023/01/09 06:36:10;;;;;;;7.70;5.50;;;;;;;5.93;92.71;101192.02;107199;1247;61033;-72
2023/01/09 06:38:39;;;;;;;9.60;6.80;;;;;;;5.92;92.83;101185.84;107283;1246;59411;-72
2023/01/09 06:41:08;;;;;;;14.30;6.70;;;;;;;5.94;92.81;101191.83;107390;1245;62729;-71
2023/01/09 06:43:37;;;;;;;6.60;5.00;;;;;;;5.98;92.47;101193.20;107236;1247;59064;-72
2023/01/09 06:46:07;;;;;;;11.60;6.50;;;;;;;5.99;92.39;101195.07;107451;1245;59116;-72
2023/01/09 06:48:36;;;;;;;11.80;6.40;;;;;;;5.99;92.41;101194.69;107473;1244;62619;-71
2023/01/09 06:51:05;;;;;;;13.00;6.90;;;;;;;6.07;92.26;101190.00;107133;1251;61698;-72
2023/01/09 06:53:34;;;;;;;10.40;5.90;;;;;;;6.04;91.95;101184.09;107418;1245;70285;-73
2023/01/09 06:56:05;;;;;;;8.90;6.20;;;;;;;6.09;91.94;101185.79;107287;1251;74579;-75
2023/01/09 06:58:34;;;;;;;8.60;6.50;;;;;;;6.10;91.87;101180.86;107287;1248;57422;-73
2023/01/09 07:01:04;;;;;;;9.30;6.50;;;;;;;6.13;91.53;101176.45;107260;1245;59110;-74
2023/01/09 07:03:33;;;;;;;14.50;6.80;;;;;;;6.14;91.85;101165.69;107360;1248;62919;-75
2023/01/09 07:06:03;;;;;;;13.00;5.90;;;;;;;6.21;91.38;101164.98;107176;1244;71731;-73
2023/01/09 07:08:33;;;;;;;9.70;6.00;;;;;;;6.22;91.26;101155.94;107232;1248;70217;-73
2023/01/09 07:11:02;;;;;;;9.70;6.80;;;;;;;6.21;91.45;101154.59;107202;1248;73879;-72
2023/01/09 07:13:31;;;;;;;9.10;6.10;;;;;;;6.19;91.21;101149.34;106998;1251;62312;-72
2023/01/09 07:16:02;;;;;;;8.60;5.40;;;;;;;6.17;91.45;101148.73;107199;1245;58284;-72
2023/01/09 07:18:31;;;;;;;10.70;6.50;;;;;;;6.19;91.69;101150.20;107083;1244;72778;-72
2023/01/09 07:21:06;;;;;;;10.90;6.90;;;;;;;6.24;91.83;101151.02;107041;1256;73522;-70
2023/01/09 07:23:35;;;;;;;10.70;6.60;;;;;;;6.27;91.70;101141.86;107051;1244;70829;-73
2023/01/09 07:26:05;;;;;;;12.60;6.60;;;;;;;6.27;91.64;101137.36;107079;1248;62896;-74
2023/01/09 07:28:34;;;;;;;10.70;6.90;;;;;;;6.30;91.32;101142.05;106866;1255;58868;-71
2023/01/09 07:31:06;;;;;;;10.40;7.00;;;;;;;6.36;90.80;101137.30;106908;1249;61224;-73
2023/01/09 07:33:35;;;;;;;11.80;6.60;;;;;;;6.39;91.21;101136.63;107058;1245;72864;-72
2023/01/09 07:36:04;;;;;;;15.00;7.80;;;;;;;6.40;90.99;101136.77;107060;1246;72740;-73
2023/01/09 07:38:35;;;;;;;14.40;7.60;;;;;;;6.42;90.90;101137.17;106908;1249;70382;-72
2023/01/09 07:41:06;;;;;;;12.60;7.00;;;;;;;6.47;90.40;101139.02;107073;1248;73809;-72
2023/01/09 07:43:37;;;;;;;10.20;6.80;;;;;;;6.46;89.88;101130.41;106915;1251;62340;-72
2023/01/09 07:46:07;;;;;;;11.50;7.20;;;;;;;6.60;89.36;101146.66;106947;1248;60275;-73
2023/01/09 07:48:37;;;;;;;8.90;5.60;;;;;;;6.61;89.20;101140.05;107080;1249;72686;-72
2023/01/09 07:51:06;;;;;;;11.70;6.40;;;;;;;6.69;89.01;101146.92;106949;1249;61142;-74
2023/01/09 07:53:35;;;;;;;8.80;7.10;;;;;;;6.74;88.25;101137.50;107050;1251;59525;-73
2023/01/09 07:56:05;;;;;;;12.90;6.90;;;;;;;6.86;87.22;101143.81;107221;1246;62529;-73
2023/01/09 07:58:34;;;;;;;11.20;7.10;;;;;;;6.89;87.34;101143.85;109270;1243;57207;-74
2023/01/09 08:01:03;;;;;;;8.80;5.30;;;;;;;6.93;86.31;101142.64;109289;1244;61739;-73
2023/01/09 08:03:32;;;;;;;12.50;6.20;;;;;;;6.99;86.20;101145.11;109361;1245;63367;-74
2023/01/09 08:06:01;;;;;;;12.10;6.60;;;;;;;7.05;85.97;101151.33;109360;1248;61615;-74
2023/01/09 08:08:30;;;;;;;14.40;10.20;;;;;;;7.15;85.95;101150.35;109422;1245;59177;-75
2023/01/09 08:10:59;;;;;;;10.40;7.80;;;;;;;7.03;85.33;101152.66;109419;1245;65734;-74
2023/01/09 08:13:28;;;;;;;9.00;6.80;;;;;;;7.18;85.33;101157.83;109352;1245;62003;-73
2023/01/09 08:15:57;;;;;;;12.20;7.50;;;;;;;7.15;85.47;101158.49;109332;1244;61586;-72
2023/01/09 08:18:29;;;;;;;9.80;5.80;;;;;;;7.23;85.12;101161.02;109279;1244;73938;-73
2023/01/09 08:20:59;;;;;;;15.70;5.50;;;;;;;7.20;84.79;101160.11;109290;1245;62661;-73
2023/01/09 08:23:28;;;;;;;12.80;6.00;;;;;;;7.29;84.40;101158.48;109560;1243;70145;-73
2023/01/09 08:25:57;;;;;;;10.10;5.90;;;;;;;7.29;83.13;101154.30;109463;1244;74355;-73
2023/01/09 08:28:26;;;;;;;11.10;5.80;;;;;;;7.31;83.23;101154.70;109361;1248;58023;-73
2023/01/09 08:30:55;;;;;;;9.40;5.70;;;;;;;7.34;83.52;101156.09;109415;1244;57080;-73
2023/01/09 08:33:24;;;;;;;7.30;5.30;;;;;;;7.28;84.20;101162.30;109405;1243;73445;-73
2023/01/09 08:35:53;;;;;;;6.50;5.40;;;;;;;7.25;84.49;101154.84;109417;1243;73475;-76
2023/01/09 08:38:22;;;;;;;7.30;5.30;;;;;;;7.36;83.89;101158.11;109604;1245;60350;-72
2023/01/09 08:40:51;;;;;;;9.00;5.00;;;;;;;7.40;83.22;101157.67;109556;1245;73875;-76
2023/01/09 08:49:07;;;;;;;9.30;4.80;;;;;;;7.32;83.04;101156.04;109583;1244;72742;-73
2023/01/09 08:51:35;;;;;;;7.70;4.30;;;;;;;7.32;82.52;101158.84;109475;1243;72189;-72
2023/01/09 08:54:04;;;;;;;7.10;5.10;;;;;;;7.39;82.22;101147.36;109522;1245;59569;-73
2023/01/09 08:56:33;;;;;;;9.30;4.80;;;;;;;7.38;82.09;101145.52;109394;1247;63285;-73
2023/01/09 08:59:02;;;;;;;8.20;4.60;;;;;;;7.44;82.00;101145.56;109422;1245;62122;-74
2023/01/09 09:01:31;;;;;;;6.20;3.80;;;;;;;7.41;81.93;101146.55;109384;1243;60298;-73
2023/01/09 09:04:00;;;;;;;6.30;4.50;;;;;;;7.36;82.34;101139.86;109530;1244;72232;-72
2023/01/09 09:06:28;;;;;;;9.40;5.00;;;;;;;7.46;82.16;101137.82;109439;1244;72603;-73
2023/01/09 09:09:02;;;;;;;10.10;4.70;;;;;;;7.38;82.26;101139.27;109554;1243;71054;-75
2023/01/09 09:11:31;;;;;;;15.10;4.70;;;;;;;7.37;82.71;101132.20;109451;1244;74588;-74
2023/01/09 09:15:11;;;;;;;7.70;4.10;;;;;;;7.33;82.62;101129.13;109368;1248;57210;-74
2023/01/09 09:16:53;;;;;;;13.30;4.80;;;;;;;7.37;82.50;101124.06;109474;1245;61233;-77
2023/01/09 09:19:22;;;;;;;8.80;5.20;;;;;;;7.37;82.32;101113.50;109538;1244;74099;-73
2023/01/09 09:21:50;;;;;;;11.00;5.30;;;;;;;7.29;82.78;101103.21;109526;1244;72575;-73
2023/01/09 09:24:20;;;;;;;8.30;4.70;;;;;;;7.34;82.77;101109.85;109496;1245;60468;-73
2023/01/09 09:26:49;;;;;;;10.10;4.90;;;;;;;7.35;82.74;101103.91;109498;1245;62499;-73
2023/01/09 09:29:18;;;;;;;13.20;4.90;;;;;;;7.33;83.18;101104.86;109536;1245;60667;-76
2023/01/09 09:31:46;;;;;;;7.50;4.50;;;;;;;7.36;83.51;101102.48;109528;1245;60544;-74
2023/01/09 09:34:15;;;;;;;12.50;4.90;;;;;;;7.40;83.22;101095.70;109400;1248;63323;-74
2023/01/09 09:36:44;;;;;;;6.60;4.30;;;;;;;7.45;82.92;101092.64;109505;1245;60889;-76
2023/01/09 09:39:13;;;;;;;13.80;5.30;;;;;;;7.44;82.44;101089.04;109553;1244;59190;-76
2023/01/09 09:45:29;;;;;;;9.30;5.20;;;;;;;7.44;83.17;101083.16;109478;1245;62942;-74
2023/01/09 09:48:25;;;;;;;6.80;3.50;;;;;;;7.35;82.88;101078.94;109594;1244;61358;-75
2023/01/09 09:51:07;;;;;;;8.70;4.80;;;;;;;7.37;83.39;101074.52;109518;1244;63618;-74
2023/01/09 09:53:47;;;;;;;8.60;4.30;;;;;;;7.40;83.13;101073.68;109526;1245;61738;-73
2023/01/09 09:56:20;;;;;;;8.20;3.80;;;;;;;7.45;82.60;101074.79;109505;1244;59132;-75
2023/01/09 09:59:07;;;;;;;7.50;3.70;;;;;;;7.45;82.63;101076.88;109471;1244;62618;-75
2023/01/09 10:01:45;;;;;;;10.40;4.40;;;;;;;7.56;82.90;101077.49;109409;1244;57576;-73
2023/01/09 10:04:17;;;;;;;9.70;4.20;;;;;;;7.62;83.02;101070.23;109363;1244;57511;-73
2023/01/09 10:06:51;;;;;;;8.10;4.10;;;;;;;7.58;82.33;101075.45;109502;1244;64444;-72
2023/01/09 10:09:45;;;;;;;8.80;3.40;;;;;;;7.57;81.98;101069.11;109379;1244;62906;-72
2023/01/09 10:12:42;;;;;;;6.70;2.70;;;;;;;7.54;81.59;101071.52;109501;1243;70445;-73
2023/01/09 10:15:18;;;;;;;9.00;4.10;;;;;;;7.54;81.23;101070.65;109415;1244;73987;-73
2023/01/09 10:18:01;;;;;;;7.20;4.40;;;;;;;7.55;81.12;101066.96;109345;1247;57649;-73
2023/01/09 10:20:57;;;;;;;7.00;3.50;;;;;;;7.54;81.00;101066.86;109352;1244;57191;-73
2023/01/09 10:23:50;;;;;;;8.10;3.20;;;;;;;7.50;80.68;101063.61;109322;1244;73486;-72
2023/01/09 10:27:01;;;;;;;6.50;3.50;;;;;;;7.57;80.34;101060.13;109497;1244;73016;-75
2023/01/09 10:30:30;;;;;;;10.10;4.20;;;;;;;7.55;80.76;101056.07;109325;1244;70802;-73
2023/01/09 10:33:13;;;;;;;14.20;3.80;;;;;;;7.61;80.60;101052.80;109271;1244;65545;-74
2023/01/09 10:36:19;;;;;;;11.00;3.70;;;;;;;7.55;80.24;101041.14;109377;1244;57683;-75
2023/01/09 10:38:52;;;;;;;5.20;2.90;;;;;;;7.63;80.12;101039.13;109390;1243;57431;-73
2023/01/09 10:41:30;;;;;;;6.40;3.80;;;;;;;7.71;79.37;101033.48;109181;1244;74248;-73
2023/01/09 10:44:32;;;;;;;8.60;3.90;;;;;;;7.59;79.92;101033.66;109507;1243;61194;-74
2023/01/09 10:47:08;;;;;;;5.80;2.90;;;;;;;7.63;80.09;101029.79;109526;1244;71107;-76
2023/01/09 10:49:37;;;;;;;9.10;4.10;;;;;;;7.63;79.93;101031.17;109373;1244;71484;-74
2023/01/09 10:52:11;;;;;;;8.60;4.60;;;;;;;7.60;79.98;101026.98;109541;1245;57264;-73
2023/01/09 10:54:59;;;;;;;8.20;3.90;;;;;;;7.60;80.00;101018.85;109517;1244;61258;-74
2023/01/09 10:57:41;;;;;;;9.70;3.90;;;;;;;7.62;80.49;101012.70;109502;1243;71501;-73
2023/01/09 11:00:29;;;;;;;10.80;4.00;;;;;;;7.55;80.39;101007.16;109463;1244;60744;-75
2023/01/09 11:02:58;;;;;;;7.00;4.10;;;;;;;7.63;80.39;101003.77;109381;1244;70436;-74
2023/01/09 11:05:29;;;;;;;7.60;4.00;;;;;;;7.58;79.98;100994.53;109541;1244;73451;-73
2023/01/09 11:08:12;;;;;;;5.70;3.90;;;;;;;7.54;80.06;100991.09;109394;1247;57842;-75
2023/01/09 11:10:53;;;;;;;10.50;5.20;;;;;;;7.60;79.71;100980.36;109401;1244;61209;-75
2023/01/09 11:13:32;;;;;;;8.60;4.60;;;;;;;7.60;79.71;100975.34;109395;1243;64284;-75
2023/01/09 11:16:10;;;;;;;8.80;4.60;;;;;;;7.64;79.38;100964.89;109426;1244;72155;-74
2023/01/09 11:18:48;;;;;;;10.90;3.90;;;;;;;7.60;79.33;100955.08;109538;1244;61288;-73
2023/01/09 11:21:38;;;;;;;8.40;4.30;;;;;;;7.62;79.25;100966.07;109422;1244;62663;-77
2023/01/09 11:24:22;;;;;;;11.60;5.30;;;;;;;7.65;79.51;100957.05;109333;1244;62947;-73
2023/01/09 11:27:13;;;;;;;9.40;3.50;;;;;;;7.71;79.07;100963.31;109377;1243;57703;-73
2023/01/09 11:29:43;;;;;;;11.30;3.90;;;;;;;7.76;78.75;100957.10;109229;1243;73644;-75
2023/01/09 11:32:23;;;;;;;7.50;4.30;;;;;;;7.83;78.41;100938.50;109297;1244;62318;-75
2023/01/09 11:34:53;;;;;;;8.10;4.30;;;;;;;7.77;78.79;100943.20;109355;1243;60140;-76
2023/01/09 11:37:30;;;;;;;10.90;4.40;;;;;;;7.71;78.74;100944.21;109292;1247;62390;-74
2023/01/09 11:40:00;;;;;;;8.60;3.60;;;;;;;7.73;78.66;100933.36;109421;1245;57180;-73
2023/01/09 11:45:41;;;;;;;9.70;4.00;;;;;;;7.88;78.06;100945.85;109468;1244;64428;-75
2023/01/09 11:48:35;;;;;;;8.70;4.80;;;;;;;7.90;77.96;100949.89;109417;1243;61975;-74
2023/01/09 11:51:29;;;;;;;8.40;4.50;;;;;;;7.84;77.93;100941.59;109445;1244;69678;-76
2023/01/09 11:54:10;;;;;;;11.30;4.20;;;;;;;7.85;78.04;100944.64;109490;1244;62808;-74
2023/01/09 11:56:39;;;;;;;7.30;4.10;;;;;;;7.83;77.99;100937.11;109524;1245;62969;-73
2023/01/09 11:59:12;;;;;;;9.00;4.60;;;;;;;7.88;77.66;100935.13;109348;1244;57155;-73
2023/01/09 12:02:43;;;;;;;8.90;4.70;;;;;;;7.87;77.26;100928.24;109504;1243;73588;-74
2023/01/09 12:05:38;;;;;;;10.90;4.00;;;;;;;7.89;76.73;100926.36;109189;1244;62219;-74
2023/01/09 12:08:59;;;;;;;7.50;4.40;;;;;;;7.90;76.89;100942.27;109425;1244;68762;-74
2023/01/09 12:11:34;;;;;;;8.80;3.90;;;;;;;7.87;76.95;100930.27;109488;1243;62569;-73
2023/01/09 12:14:49;;;;;;;9.10;3.80;;;;;;;7.88;76.57;100922.46;109458;1245;57671;-76